sensor_id;sensor_type;location;lat;lon;timestamp;pressure;altitude;pressure_sealevel;temperature;humidity
62055;BME280;48653;51.742;-1.256;2023-04-23T00:01:57;99413.61;;;10.82;57.61
62055;BME280;48653;51.742;-1.256;2023-04-23T00:04:21;99407.25;;;9.91;60.06
62055;BME280;48653;51.742;-1.256;2023-04-23T00:06:46;99407.42;;;10.38;58.89
62055;BME280;48653;51.742;-1.256;2023-04-23T00:09:12;99404.66;;;10.85;57.12
62055;BME280;48653;51.742;-1.256;2023-04-23T00:11:37;99405.40;;;10.28;59.42
62055;BME280;48653;51.742;-1.256;2023-04-23T00:14:02;99404.83;;;10.72;57.81
62055;BME280;48653;51.742;-1.256;2023-04-23T00:16:27;99403.63;;;11.10;56.99
62055;BME280;48653;51.742;-1.256;2023-04-23T00:18:53;99395.85;;;11.33;56.08
62055;BME280;48653;51.742;-1.256;2023-04-23T00:21:18;99393.38;;;11.10;56.17
62055;BME280;48653;51.742;-1.256;2023-04-23T00:23:44;99391.31;;;10.84;58.11
62055;BME280;48653;51.742;-1.256;2023-04-23T00:26:09;99387.23;;;10.82;57.89
62055;BME280;48653;51.742;-1.256;2023-04-23T00:28:35;99385.86;;;10.92;57.06
62055;BME280;48653;51.742;-1.256;2023-04-23T00:31:01;99385.06;;;10.71;56.64
62055;BME280;48653;51.742;-1.256;2023-04-23T00:33:26;99382.08;;;11.04;55.71
62055;BME280;48653;51.742;-1.256;2023-04-23T00:35:51;99381.77;;;10.83;57.01
62055;BME280;48653;51.742;-1.256;2023-04-23T00:38:16;99379.95;;;10.98;57.46
62055;BME280;48653;51.742;-1.256;2023-04-23T00:40:42;99378.83;;;10.74;57.05
62055;BME280;48653;51.742;-1.256;2023-04-23T00:43:08;99378.67;;;10.60;56.57
62055;BME280;48653;51.742;-1.256;2023-04-23T00:45:33;99376.25;;;11.36;55.25
62055;BME280;48653;51.742;-1.256;2023-04-23T00:47:58;99375.82;;;11.20;55.56
62055;BME280;48653;51.742;-1.256;2023-04-23T00:50:24;99371.68;;;11.61;54.61
62055;BME280;48653;51.742;-1.256;2023-04-23T00:52:50;99369.36;;;11.79;54.02
62055;BME280;48653;51.742;-1.256;2023-04-23T00:55:14;99367.78;;;11.52;55.25
62055;BME280;48653;51.742;-1.256;2023-04-23T00:57:40;99361.96;;;11.85;54.11
62055;BME280;48653;51.742;-1.256;2023-04-23T01:00:06;99359.67;;;12.15;53.31
62055;BME280;48653;51.742;-1.256;2023-04-23T01:02:31;99352.31;;;11.53;54.27
62055;BME280;48653;51.742;-1.256;2023-04-23T01:04:57;99351.96;;;11.51;53.80
62055;BME280;48653;51.742;-1.256;2023-04-23T01:07:22;99349.50;;;11.82;53.67
62055;BME280;48653;51.742;-1.256;2023-04-23T01:09:48;99345.57;;;11.48;54.42
62055;BME280;48653;51.742;-1.256;2023-04-23T01:12:14;99344.35;;;11.51;54.66
62055;BME280;48653;51.742;-1.256;2023-04-23T01:14:38;99343.33;;;11.62;55.16
62055;BME280;48653;51.742;-1.256;2023-04-23T01:17:04;99343.51;;;11.19;56.52
62055;BME280;48653;51.742;-1.256;2023-04-23T01:19:29;99339.64;;;11.18;56.32
62055;BME280;48653;51.742;-1.256;2023-04-23T01:21:55;99341.34;;;11.26;55.85
62055;BME280;48653;51.742;-1.256;2023-04-23T01:24:19;99341.58;;;11.41;57.23
62055;BME280;48653;51.742;-1.256;2023-04-23T01:26:45;99341.85;;;10.96;58.04
62055;BME280;48653;51.742;-1.256;2023-04-23T01:29:10;99338.83;;;10.85;58.66
62055;BME280;48653;51.742;-1.256;2023-04-23T01:31:36;99338.95;;;10.97;57.62
62055;BME280;48653;51.742;-1.256;2023-04-23T01:34:01;99339.42;;;10.60;58.51
62055;BME280;48653;51.742;-1.256;2023-04-23T01:36:26;99334.17;;;11.47;57.26
62055;BME280;48653;51.742;-1.256;2023-04-23T01:38:52;99332.73;;;11.25;57.35
62055;BME280;48653;51.742;-1.256;2023-04-23T01:41:18;99326.58;;;11.52;55.84
62055;BME280;48653;51.742;-1.256;2023-04-23T01:43:43;99328.07;;;11.05;57.56
62055;BME280;48653;51.742;-1.256;2023-04-23T01:46:08;99323.27;;;11.08;57.57
62055;BME280;48653;51.742;-1.256;2023-04-23T01:48:34;99320.16;;;11.39;56.60
62055;BME280;48653;51.742;-1.256;2023-04-23T01:50:59;99315.32;;;11.12;57.44
62055;BME280;48653;51.742;-1.256;2023-04-23T01:53:24;99318.82;;;10.56;58.96
62055;BME280;48653;51.742;-1.256;2023-04-23T01:55:50;99321.48;;;10.85;58.74
62055;BME280;48653;51.742;-1.256;2023-04-23T01:58:14;99320.04;;;10.54;59.18
62055;BME280;48653;51.742;-1.256;2023-04-23T02:00:39;99318.27;;;9.93;61.22
62055;BME280;48653;51.742;-1.256;2023-04-23T02:03:04;99315.67;;;10.64;59.55
62055;BME280;48653;51.742;-1.256;2023-04-23T02:05:29;99312.58;;;10.70;58.47
62055;BME280;48653;51.742;-1.256;2023-04-23T02:07:56;99313.38;;;10.57;59.64
62055;BME280;48653;51.742;-1.256;2023-04-23T02:10:20;99313.26;;;10.99;57.65
62055;BME280;48653;51.742;-1.256;2023-04-23T02:12:45;99317.33;;;10.76;59.14
62055;BME280;48653;51.742;-1.256;2023-04-23T02:15:11;99314.99;;;11.14;58.19
62055;BME280;48653;51.742;-1.256;2023-04-23T02:17:35;99313.51;;;10.44;58.55
62055;BME280;48653;51.742;-1.256;2023-04-23T02:20:00;99311.07;;;10.76;59.02
62055;BME280;48653;51.742;-1.256;2023-04-23T02:22:26;99308.59;;;10.01;60.29
62055;BME280;48653;51.742;-1.256;2023-04-23T02:24:51;99309.41;;;10.03;60.90
62055;BME280;48653;51.742;-1.256;2023-04-23T02:27:16;99306.08;;;10.51;60.11
62055;BME280;48653;51.742;-1.256;2023-04-23T02:29:41;99304.93;;;10.83;58.15
62055;BME280;48653;51.742;-1.256;2023-04-23T02:32:06;99305.00;;;11.12;57.47
62055;BME280;48653;51.742;-1.256;2023-04-23T02:34:31;99301.96;;;11.33;57.10
62055;BME280;48653;51.742;-1.256;2023-04-23T02:36:56;99303.30;;;11.39;56.15
62055;BME280;48653;51.742;-1.256;2023-04-23T02:39:22;99299.98;;;11.38;55.50
62055;BME280;48653;51.742;-1.256;2023-04-23T02:41:47;99298.86;;;11.62;55.48
62055;BME280;48653;51.742;-1.256;2023-04-23T02:44:12;99299.74;;;11.27;56.28
62055;BME280;48653;51.742;-1.256;2023-04-23T02:46:37;99299.29;;;11.36;56.17
62055;BME280;48653;51.742;-1.256;2023-04-23T02:49:02;99302.17;;;11.30;56.79
62055;BME280;48653;51.742;-1.256;2023-04-23T02:51:27;99309.14;;;10.95;57.64
62055;BME280;48653;51.742;-1.256;2023-04-23T02:53:52;99304.78;;;11.04;57.46
62055;BME280;48653;51.742;-1.256;2023-04-23T02:56:18;99305.93;;;10.14;59.40
62055;BME280;48653;51.742;-1.256;2023-04-23T02:58:43;99306.43;;;10.47;58.71
62055;BME280;48653;51.742;-1.256;2023-04-23T03:01:08;99303.78;;;11.09;56.83
62055;BME280;48653;51.742;-1.256;2023-04-23T03:03:33;99303.64;;;11.02;56.77
62055;BME280;48653;51.742;-1.256;2023-04-23T03:06:00;99308.06;;;11.03;56.22
62055;BME280;48653;51.742;-1.256;2023-04-23T03:08:24;99310.25;;;11.65;55.61
62055;BME280;48653;51.742;-1.256;2023-04-23T03:10:49;99308.39;;;11.37;56.55
62055;BME280;48653;51.742;-1.256;2023-04-23T03:13:14;99308.20;;;11.03;55.48
62055;BME280;48653;51.742;-1.256;2023-04-23T03:15:40;99313.23;;;10.63;57.75
62055;BME280;48653;51.742;-1.256;2023-04-23T03:18:05;99308.96;;;11.16;56.53
62055;BME280;48653;51.742;-1.256;2023-04-23T03:20:30;99311.33;;;11.18;56.57
62055;BME280;48653;51.742;-1.256;2023-04-23T03:22:56;99313.90;;;10.67;58.24
62055;BME280;48653;51.742;-1.256;2023-04-23T03:25:21;99310.18;;;10.93;57.02
62055;BME280;48653;51.742;-1.256;2023-04-23T03:27:46;99310.86;;;11.02;56.78
62055;BME280;48653;51.742;-1.256;2023-04-23T03:30:11;99311.85;;;11.47;56.05
62055;BME280;48653;51.742;-1.256;2023-04-23T03:32:37;99317.45;;;10.81;56.87
62055;BME280;48653;51.742;-1.256;2023-04-23T03:35:02;99311.30;;;11.37;55.74
62055;BME280;48653;51.742;-1.256;2023-04-23T03:37:27;99312.17;;;11.08;56.52
62055;BME280;48653;51.742;-1.256;2023-04-23T03:39:53;99316.82;;;11.13;57.63
62055;BME280;48653;51.742;-1.256;2023-04-23T03:42:18;99318.94;;;10.98;57.23
62055;BME280;48653;51.742;-1.256;2023-04-23T03:44:43;99318.55;;;10.48;58.97
62055;BME280;48653;51.742;-1.256;2023-04-23T03:47:08;99315.75;;;10.90;57.36
62055;BME280;48653;51.742;-1.256;2023-04-23T03:49:33;99310.72;;;11.39;56.91
62055;BME280;48653;51.742;-1.256;2023-04-23T03:51:59;99314.46;;;11.00;57.04
62055;BME280;48653;51.742;-1.256;2023-04-23T03:54:24;99314.93;;;11.14;56.77
62055;BME280;48653;51.742;-1.256;2023-04-23T03:56:50;99317.17;;;10.50;57.62
62055;BME280;48653;51.742;-1.256;2023-04-23T03:59:15;99314.11;;;10.60;57.86
62055;BME280;48653;51.742;-1.256;2023-04-23T04:01:42;99314.16;;;10.84;57.43
62055;BME280;48653;51.742;-1.256;2023-04-23T04:04:06;99312.34;;;10.75;57.04
62055;BME280;48653;51.742;-1.256;2023-04-23T04:06:31;99306.81;;;11.06;56.71
62055;BME280;48653;51.742;-1.256;2023-04-23T04:08:57;99311.31;;;10.99;56.83
62055;BME280;48653;51.742;-1.256;2023-04-23T04:11:22;99314.59;;;10.83;57.04
62055;BME280;48653;51.742;-1.256;2023-04-23T04:13:47;99308.21;;;10.89;57.02
62055;BME280;48653;51.742;-1.256;2023-04-23T04:16:12;99304.29;;;11.22;56.45
62055;BME280;48653;51.742;-1.256;2023-04-23T04:18:37;99304.25;;;11.24;55.96
62055;BME280;48653;51.742;-1.256;2023-04-23T04:21:03;99308.46;;;10.85;57.88
62055;BME280;48653;51.742;-1.256;2023-04-23T04:23:28;99311.91;;;10.27;58.99
62055;BME280;48653;51.742;-1.256;2023-04-23T04:25:53;99315.57;;;10.91;57.77
62055;BME280;48653;51.742;-1.256;2023-04-23T04:28:18;99317.65;;;10.75;58.15
62055;BME280;48653;51.742;-1.256;2023-04-23T04:30:43;99317.01;;;10.14;59.63
62055;BME280;48653;51.742;-1.256;2023-04-23T04:33:08;99321.71;;;9.70;60.94
62055;BME280;48653;51.742;-1.256;2023-04-23T04:35:33;99323.44;;;10.57;59.29
62055;BME280;48653;51.742;-1.256;2023-04-23T04:37:58;99325.95;;;10.65;58.24
62055;BME280;48653;51.742;-1.256;2023-04-23T04:40:24;99327.89;;;11.08;57.60
62055;BME280;48653;51.742;-1.256;2023-04-23T04:42:49;99329.31;;;10.65;57.34
62055;BME280;48653;51.742;-1.256;2023-04-23T04:45:14;99331.45;;;10.50;57.25
62055;BME280;48653;51.742;-1.256;2023-04-23T04:47:39;99335.88;;;10.59;56.72
62055;BME280;48653;51.742;-1.256;2023-04-23T04:50:05;99338.00;;;10.05;57.75
62055;BME280;48653;51.742;-1.256;2023-04-23T04:52:29;99340.79;;;10.46;57.59
62055;BME280;48653;51.742;-1.256;2023-04-23T04:54:55;99341.97;;;10.92;56.35
62055;BME280;48653;51.742;-1.256;2023-04-23T04:57:20;99340.95;;;9.50;58.76
62055;BME280;48653;51.742;-1.256;2023-04-23T04:59:45;99339.50;;;9.52;58.63
62055;BME280;48653;51.742;-1.256;2023-04-23T05:02:11;99333.91;;;10.17;57.07
62055;BME280;48653;51.742;-1.256;2023-04-23T05:04:37;99333.46;;;10.97;55.42
62055;BME280;48653;51.742;-1.256;2023-04-23T05:07:02;99337.70;;;10.93;54.84
62055;BME280;48653;51.742;-1.256;2023-04-23T05:09:27;99339.55;;;11.33;54.52
62055;BME280;48653;51.742;-1.256;2023-04-23T05:11:53;99342.51;;;10.90;54.20
62055;BME280;48653;51.742;-1.256;2023-04-23T05:14:18;99347.55;;;10.94;54.13
62055;BME280;48653;51.742;-1.256;2023-04-23T05:16:44;99344.76;;;11.46;53.54
62055;BME280;48653;51.742;-1.256;2023-04-23T05:19:09;99353.95;;;11.00;53.96
62055;BME280;48653;51.742;-1.256;2023-04-23T05:21:34;99356.66;;;11.27;53.87
62055;BME280;48653;51.742;-1.256;2023-04-23T05:24:00;99364.08;;;11.48;53.35
62055;BME280;48653;51.742;-1.256;2023-04-23T05:26:26;99369.59;;;11.04;54.27
62055;BME280;48653;51.742;-1.256;2023-04-23T05:28:51;99368.76;;;10.65;54.57
62055;BME280;48653;51.742;-1.256;2023-04-23T05:31:17;99367.32;;;11.02;54.35
62055;BME280;48653;51.742;-1.256;2023-04-23T05:33:42;99367.50;;;10.75;54.70
62055;BME280;48653;51.742;-1.256;2023-04-23T05:36:07;99367.70;;;10.27;55.79
62055;BME280;48653;51.742;-1.256;2023-04-23T05:38:33;99366.13;;;10.43;55.78
62055;BME280;48653;51.742;-1.256;2023-04-23T05:40:59;99370.17;;;10.89;54.24
62055;BME280;48653;51.742;-1.256;2023-04-23T05:43:24;99366.22;;;10.89;53.94
62055;BME280;48653;51.742;-1.256;2023-04-23T05:45:49;99366.80;;;10.76;53.82
62055;BME280;48653;51.742;-1.256;2023-04-23T05:48:14;99364.73;;;11.13;53.19
62055;BME280;48653;51.742;-1.256;2023-04-23T05:50:40;99367.62;;;10.70;54.09
62055;BME280;48653;51.742;-1.256;2023-04-23T05:53:06;99367.50;;;10.77;54.48
62055;BME280;48653;51.742;-1.256;2023-04-23T05:55:31;99367.42;;;10.80;54.45
62055;BME280;48653;51.742;-1.256;2023-04-23T05:57:56;99370.01;;;10.99;53.89
62055;BME280;48653;51.742;-1.256;2023-04-23T06:00:22;99373.42;;;11.00;53.64
62055;BME280;48653;51.742;-1.256;2023-04-23T06:02:47;99372.29;;;11.29;53.17
62055;BME280;48653;51.742;-1.256;2023-04-23T06:05:13;99373.23;;;10.80;53.49
62055;BME280;48653;51.742;-1.256;2023-04-23T06:07:38;99371.66;;;10.88;54.12
62055;BME280;48653;51.742;-1.256;2023-04-23T06:10:04;99371.54;;;11.44;52.68
62055;BME280;48653;51.742;-1.256;2023-04-23T06:12:28;99371.77;;;10.72;53.73
62055;BME280;48653;51.742;-1.256;2023-04-23T06:14:54;99371.70;;;11.24;53.02
62055;BME280;48653;51.742;-1.256;2023-04-23T06:17:19;99372.03;;;11.14;53.33
62055;BME280;48653;51.742;-1.256;2023-04-23T06:19:45;99372.15;;;11.19;52.90
62055;BME280;48653;51.742;-1.256;2023-04-23T06:22:10;99372.61;;;11.23;53.18
62055;BME280;48653;51.742;-1.256;2023-04-23T06:24:35;99373.87;;;11.30;53.06
62055;BME280;48653;51.742;-1.256;2023-04-23T06:27:01;99369.32;;;11.55;52.35
62055;BME280;48653;51.742;-1.256;2023-04-23T06:29:26;99373.70;;;10.94;53.83
62055;BME280;48653;51.742;-1.256;2023-04-23T06:31:54;99375.78;;;10.72;53.35
62055;BME280;48653;51.742;-1.256;2023-04-23T06:34:17;99374.84;;;11.34;53.01
62055;BME280;48653;51.742;-1.256;2023-04-23T06:36:42;99368.57;;;11.11;53.45
62055;BME280;48653;51.742;-1.256;2023-04-23T06:39:08;99368.72;;;10.96;53.86
62055;BME280;48653;51.742;-1.256;2023-04-23T06:41:33;99369.66;;;11.33;53.02
62055;BME280;48653;51.742;-1.256;2023-04-23T06:43:58;99376.50;;;11.18;52.94
62055;BME280;48653;51.742;-1.256;2023-04-23T06:46:23;99379.78;;;11.14;52.83
62055;BME280;48653;51.742;-1.256;2023-04-23T06:48:49;99383.00;;;10.55;54.20
62055;BME280;48653;51.742;-1.256;2023-04-23T06:51:14;99388.37;;;10.94;53.81
62055;BME280;48653;51.742;-1.256;2023-04-23T06:53:39;99388.46;;;11.49;52.99
62055;BME280;48653;51.742;-1.256;2023-04-23T06:56:05;99386.58;;;10.81;53.84
62055;BME280;48653;51.742;-1.256;2023-04-23T06:58:31;99387.89;;;10.49;54.83
62055;BME280;48653;51.742;-1.256;2023-04-23T07:00:57;99387.11;;;11.25;53.42
62055;BME280;48653;51.742;-1.256;2023-04-23T07:03:22;99385.10;;;10.73;52.77
62055;BME280;48653;51.742;-1.256;2023-04-23T07:05:47;99388.68;;;11.33;52.37
62055;BME280;48653;51.742;-1.256;2023-04-23T07:08:13;99392.07;;;10.55;53.48
62055;BME280;48653;51.742;-1.256;2023-04-23T07:10:38;99390.28;;;10.73;53.68
62055;BME280;48653;51.742;-1.256;2023-04-23T07:13:04;99394.95;;;11.15;52.57
62055;BME280;48653;51.742;-1.256;2023-04-23T07:15:30;99400.11;;;10.92;53.10
62055;BME280;48653;51.742;-1.256;2023-04-23T07:17:55;99399.19;;;11.31;52.66
62055;BME280;48653;51.742;-1.256;2023-04-23T07:20:20;99401.65;;;10.63;53.44
62055;BME280;48653;51.742;-1.256;2023-04-23T07:22:47;99408.39;;;11.27;52.11
62055;BME280;48653;51.742;-1.256;2023-04-23T07:25:12;99409.90;;;11.12;52.59
62055;BME280;48653;51.742;-1.256;2023-04-23T07:27:37;99407.86;;;11.64;51.98
62055;BME280;48653;51.742;-1.256;2023-04-23T07:30:03;99409.89;;;11.43;52.19
62055;BME280;48653;51.742;-1.256;2023-04-23T07:32:28;99410.36;;;11.22;53.25
62055;BME280;48653;51.742;-1.256;2023-04-23T07:34:53;99407.99;;;11.03;52.87
62055;BME280;48653;51.742;-1.256;2023-04-23T07:37:18;99406.32;;;10.48;53.78
62055;BME280;48653;51.742;-1.256;2023-04-23T07:39:44;99404.66;;;11.76;52.06
62055;BME280;48653;51.742;-1.256;2023-04-23T07:42:09;99407.76;;;10.98;52.42
62055;BME280;48653;51.742;-1.256;2023-04-23T07:44:34;99404.17;;;10.84;51.95
62055;BME280;48653;51.742;-1.256;2023-04-23T07:47:00;99403.60;;;11.12;53.13
62055;BME280;48653;51.742;-1.256;2023-04-23T07:49:25;99399.20;;;11.94;52.73
62055;BME280;48653;51.742;-1.256;2023-04-23T07:51:50;99405.60;;;11.24;52.11
62055;BME280;48653;51.742;-1.256;2023-04-23T07:54:16;99401.00;;;11.74;51.59
62055;BME280;48653;51.742;-1.256;2023-04-23T07:56:41;99405.11;;;11.71;51.77
62055;BME280;48653;51.742;-1.256;2023-04-23T07:59:06;99401.53;;;12.05;50.81
62055;BME280;48653;51.742;-1.256;2023-04-23T08:01:31;99401.97;;;11.88;51.46
62055;BME280;48653;51.742;-1.256;2023-04-23T08:03:57;99404.03;;;11.80;51.20
62055;BME280;48653;51.742;-1.256;2023-04-23T08:06:22;99410.36;;;11.39;50.79
62055;BME280;48653;51.742;-1.256;2023-04-23T08:08:48;99406.09;;;11.88;50.15
62055;BME280;48653;51.742;-1.256;2023-04-23T08:11:13;99404.52;;;12.00;49.40
62055;BME280;48653;51.742;-1.256;2023-04-23T08:13:39;99402.83;;;12.33;49.81
62055;BME280;48653;51.742;-1.256;2023-04-23T08:16:04;99400.42;;;12.23;49.08
62055;BME280;48653;51.742;-1.256;2023-04-23T08:18:30;99401.34;;;12.59;48.20
62055;BME280;48653;51.742;-1.256;2023-04-23T08:20:55;99398.52;;;12.37;48.78
62055;BME280;48653;51.742;-1.256;2023-04-23T08:23:21;99396.95;;;12.74;47.14
62055;BME280;48653;51.742;-1.256;2023-04-23T08:25:46;99397.64;;;12.38;48.27
62055;BME280;48653;51.742;-1.256;2023-04-23T08:28:11;99399.02;;;12.75;47.41
62055;BME280;48653;51.742;-1.256;2023-04-23T08:30:37;99401.57;;;13.08;46.35
62055;BME280;48653;51.742;-1.256;2023-04-23T08:33:02;99402.63;;;13.51;45.95
62055;BME280;48653;51.742;-1.256;2023-04-23T08:35:27;99399.48;;;13.16;45.40
62055;BME280;48653;51.742;-1.256;2023-04-23T08:37:52;99400.19;;;13.40;45.16
62055;BME280;48653;51.742;-1.256;2023-04-23T08:40:18;99400.96;;;13.15;45.58
62055;BME280;48653;51.742;-1.256;2023-04-23T08:42:48;99400.34;;;13.06;45.08
62055;BME280;48653;51.742;-1.256;2023-04-23T08:45:10;99400.08;;;13.09;44.84
62055;BME280;48653;51.742;-1.256;2023-04-23T08:47:34;99396.84;;;13.63;44.13
62055;BME280;48653;51.742;-1.256;2023-04-23T08:50:00;99401.87;;;14.04;43.37
62055;BME280;48653;51.742;-1.256;2023-04-23T08:52:26;99400.33;;;13.20;43.43
62055;BME280;48653;51.742;-1.256;2023-04-23T08:54:52;99399.55;;;13.40;44.43
62055;BME280;48653;51.742;-1.256;2023-04-23T08:57:16;99395.89;;;13.13;43.39
62055;BME280;48653;51.742;-1.256;2023-04-23T08:59:40;99394.45;;;13.69;44.15
62055;BME280;48653;51.742;-1.256;2023-04-23T09:02:05;99391.62;;;13.98;43.70
62055;BME280;48653;51.742;-1.256;2023-04-23T09:04:31;99391.28;;;12.94;42.79
62055;BME280;48653;51.742;-1.256;2023-04-23T09:06:56;99393.05;;;13.05;44.71
62055;BME280;48653;51.742;-1.256;2023-04-23T09:09:22;99389.85;;;13.12;44.50
62055;BME280;48653;51.742;-1.256;2023-04-23T09:11:47;99385.96;;;13.00;42.70
62055;BME280;48653;51.742;-1.256;2023-04-23T09:14:12;99380.86;;;14.32;41.82
62055;BME280;48653;51.742;-1.256;2023-04-23T09:16:38;99380.63;;;14.40;41.96
62055;BME280;48653;51.742;-1.256;2023-04-23T09:19:04;99384.67;;;14.31;41.09
62055;BME280;48653;51.742;-1.256;2023-04-23T09:21:29;99382.37;;;15.18;40.70
62055;BME280;48653;51.742;-1.256;2023-04-23T09:23:54;99382.34;;;15.72;38.99
62055;BME280;48653;51.742;-1.256;2023-04-23T09:26:20;99382.25;;;15.89;40.34
62055;BME280;48653;51.742;-1.256;2023-04-23T09:28:48;99382.82;;;15.12;39.89
62055;BME280;48653;51.742;-1.256;2023-04-23T09:31:11;99382.43;;;15.65;40.14
62055;BME280;48653;51.742;-1.256;2023-04-23T09:33:36;99378.79;;;15.36;40.55
62055;BME280;48653;51.742;-1.256;2023-04-23T09:36:07;99374.52;;;14.52;39.83
62055;BME280;48653;51.742;-1.256;2023-04-23T09:38:26;99372.69;;;15.14;40.79
62055;BME280;48653;51.742;-1.256;2023-04-23T09:40:52;99376.26;;;14.82;39.63
62055;BME280;48653;51.742;-1.256;2023-04-23T09:43:17;99381.35;;;15.05;38.69
62055;BME280;48653;51.742;-1.256;2023-04-23T09:45:47;99378.58;;;14.47;39.46
62055;BME280;48653;51.742;-1.256;2023-04-23T09:48:07;99377.47;;;15.65;39.58
62055;BME280;48653;51.742;-1.256;2023-04-23T09:50:34;99374.01;;;15.93;38.91
62055;BME280;48653;51.742;-1.256;2023-04-23T09:52:58;99370.74;;;17.06;34.93
62055;BME280;48653;51.742;-1.256;2023-04-23T09:55:28;99367.85;;;16.98;36.64
62055;BME280;48653;51.742;-1.256;2023-04-23T09:57:49;99367.18;;;16.10;37.34
62055;BME280;48653;51.742;-1.256;2023-04-23T10:00:19;99365.40;;;16.06;38.31
62055;BME280;48653;51.742;-1.256;2023-04-23T10:02:45;99363.67;;;16.51;36.72
62055;BME280;48653;51.742;-1.256;2023-04-23T10:05:13;99363.63;;;16.45;36.72
62055;BME280;48653;51.742;-1.256;2023-04-23T10:07:31;99361.94;;;16.39;36.45
62055;BME280;48653;51.742;-1.256;2023-04-23T10:09:56;99360.66;;;17.10;37.05
62055;BME280;48653;51.742;-1.256;2023-04-23T10:12:22;99359.08;;;16.74;36.06
62055;BME280;48653;51.742;-1.256;2023-04-23T10:14:47;99353.29;;;16.67;36.34
62055;BME280;48653;51.742;-1.256;2023-04-23T10:17:12;99352.72;;;16.47;36.02
62055;BME280;48653;51.742;-1.256;2023-04-23T10:19:38;99348.77;;;15.99;36.91
62055;BME280;48653;51.742;-1.256;2023-04-23T10:22:04;99344.47;;;17.18;35.97
62055;BME280;48653;51.742;-1.256;2023-04-23T10:24:31;99348.71;;;16.72;35.73
62055;BME280;48653;51.742;-1.256;2023-04-23T10:26:56;99347.35;;;16.65;35.61
62055;BME280;48653;51.742;-1.256;2023-04-23T10:29:26;99344.28;;;15.99;35.68
62055;BME280;48653;51.742;-1.256;2023-04-23T10:31:46;99350.47;;;15.04;35.47
62055;BME280;48653;51.742;-1.256;2023-04-23T10:34:10;99348.28;;;15.54;34.75
62055;BME280;48653;51.742;-1.256;2023-04-23T10:36:36;99347.80;;;15.55;36.01
62055;BME280;48653;51.742;-1.256;2023-04-23T10:39:01;99345.19;;;16.34;36.62
62055;BME280;48653;51.742;-1.256;2023-04-23T10:41:30;99343.19;;;16.40;35.57
62055;BME280;48653;51.742;-1.256;2023-04-23T10:43:52;99347.02;;;16.45;33.02
62055;BME280;48653;51.742;-1.256;2023-04-23T10:46:26;99354.58;;;15.99;34.15
62055;BME280;48653;51.742;-1.256;2023-04-23T10:48:50;99350.67;;;15.72;33.47
62055;BME280;48653;51.742;-1.256;2023-04-23T10:51:07;99350.41;;;15.64;34.00
62055;BME280;48653;51.742;-1.256;2023-04-23T10:53:35;99345.58;;;16.09;34.79
62055;BME280;48653;51.742;-1.256;2023-04-23T10:56:04;99339.38;;;16.02;32.80
62055;BME280;48653;51.742;-1.256;2023-04-23T10:58:23;99340.61;;;15.94;33.41
62055;BME280;48653;51.742;-1.256;2023-04-23T11:00:48;99342.23;;;16.63;33.43
62055;BME280;48653;51.742;-1.256;2023-04-23T11:03:26;99327.93;;;18.27;32.43
62055;BME280;48653;51.742;-1.256;2023-04-23T11:05:38;99325.97;;;18.65;31.08
62055;BME280;48653;51.742;-1.256;2023-04-23T11:08:05;99323.52;;;18.07;30.18
62055;BME280;48653;51.742;-1.256;2023-04-23T11:10:29;99324.11;;;17.56;31.14
62055;BME280;48653;51.742;-1.256;2023-04-23T11:12:54;99324.52;;;18.03;30.61
62055;BME280;48653;51.742;-1.256;2023-04-23T11:15:18;99331.20;;;17.76;31.98
62055;BME280;48653;51.742;-1.256;2023-04-23T11:17:58;99326.35;;;16.96;31.98
62055;BME280;48653;51.742;-1.256;2023-04-23T11:20:10;99326.52;;;17.07;31.62
62055;BME280;48653;51.742;-1.256;2023-04-23T11:22:34;99328.25;;;17.18;31.34
62055;BME280;48653;51.742;-1.256;2023-04-23T11:25:00;99325.42;;;17.66;30.56
62055;BME280;48653;51.742;-1.256;2023-04-23T11:27:24;99326.88;;;16.50;29.76
62055;BME280;48653;51.742;-1.256;2023-04-23T11:29:49;99327.91;;;17.65;29.86
62055;BME280;48653;51.742;-1.256;2023-04-23T11:32:15;99331.99;;;15.23;29.79
62055;BME280;48653;51.742;-1.256;2023-04-23T11:34:40;99334.67;;;16.41;29.65
62055;BME280;48653;51.742;-1.256;2023-04-23T11:37:04;99333.93;;;15.33;29.78
62055;BME280;48653;51.742;-1.256;2023-04-23T11:39:29;99329.31;;;16.06;29.26
62055;BME280;48653;51.742;-1.256;2023-04-23T11:41:55;99329.84;;;16.51;29.28
62055;BME280;48653;51.742;-1.256;2023-04-23T11:44:20;99332.82;;;16.90;29.96
62055;BME280;48653;51.742;-1.256;2023-04-23T11:46:46;99328.26;;;16.94;31.04
62055;BME280;48653;51.742;-1.256;2023-04-23T11:49:10;99327.03;;;17.36;29.59
62055;BME280;48653;51.742;-1.256;2023-04-23T11:51:40;99328.77;;;16.94;29.56
62055;BME280;48653;51.742;-1.256;2023-04-23T11:54:02;99335.45;;;16.88;28.59
62055;BME280;48653;51.742;-1.256;2023-04-23T11:56:29;99331.23;;;15.95;30.20
62055;BME280;48653;51.742;-1.256;2023-04-23T11:58:58;99331.80;;;15.88;30.85
62055;BME280;48653;51.742;-1.256;2023-04-23T12:01:16;99334.42;;;16.06;29.94
62055;BME280;48653;51.742;-1.256;2023-04-23T12:03:47;99332.49;;;16.02;30.20
62055;BME280;48653;51.742;-1.256;2023-04-23T12:06:06;99335.16;;;16.97;30.41
62055;BME280;48653;51.742;-1.256;2023-04-23T12:08:32;99333.31;;;17.11;30.05
62055;BME280;48653;51.742;-1.256;2023-04-23T12:11:00;99336.97;;;18.18;30.25
62055;BME280;48653;51.742;-1.256;2023-04-23T12:13:23;99333.25;;;17.18;29.87
62055;BME280;48653;51.742;-1.256;2023-04-23T12:15:49;99337.75;;;16.07;30.28
62055;BME280;48653;51.742;-1.256;2023-04-23T12:18:13;99338.10;;;16.96;31.61
62055;BME280;48653;51.742;-1.256;2023-04-23T12:20:38;99338.24;;;16.64;31.41
62055;BME280;48653;51.742;-1.256;2023-04-23T12:23:03;99336.22;;;16.51;30.58
62055;BME280;48653;51.742;-1.256;2023-04-23T12:25:28;99336.53;;;16.00;30.72
62055;BME280;48653;51.742;-1.256;2023-04-23T12:27:58;99332.59;;;16.98;31.29
62055;BME280;48653;51.742;-1.256;2023-04-23T12:30:18;99333.99;;;15.35;30.34
62055;BME280;48653;51.742;-1.256;2023-04-23T12:32:43;99333.08;;;16.29;29.72
62055;BME280;48653;51.742;-1.256;2023-04-23T12:35:09;99333.58;;;15.96;30.20
62055;BME280;48653;51.742;-1.256;2023-04-23T12:37:35;99328.66;;;16.69;30.05
62055;BME280;48653;51.742;-1.256;2023-04-23T12:39:59;99329.98;;;16.81;29.08